PWSweather.com
Personal Weather Stations
Station Observations
KGAROSWE1
Roswell (historic Mill Village), Roswell, GA 30075

Roswell (historic Mill Village)Roswell, GA 30075

Lat: 34.014545, Lon: -84.358498

Elevation: 1025

Station Type: Davis Vantage Vue

http://www.roswellweather.net

Latest ConditionsUpdated 7:10:28 PM EST Sunday, Jan 22, 2017
Currently Today's Max Today's Min Today's Average
Temperature 58.1°F14.5°C 59.5°F15.3°C 55.8°F13.2°C 57.1°F13.9°C
Dew Point 57.5°F14.2°C 58.4°F14.7°C 54.7°F12.6°C 56.2°F13.4°C
Winds 3.0 mph N4.8 kmh N 8.0 mph E12.9 kmh E - 1.1 mph 1.8 kmh
Wind Gusts 3.0 mph4.8 kmh 13.0 mph20.9 kmh - -
Humidity 98% 99% 95% 97%
Pressure 29.17 in987.8 mb 29.65 in1004.1 mb 29.11 in985.8 mb -
Hour Temp Dew Point Humidity Winds Wind Gusts Pressure Precip Precip Rate Daily Precip Total
07:10 PM 58.1°F14.5°C 57.5°F14.2°C 98% 3.0 mph N4.8 kmh N 3.0 mph4.8 kmh 29.17 in987.8 mb 0.00 in0.0 mm 0.00 in0.0 mm 0.02 in0.5 mm
07:02 PM 58.1°F14.5°C 57.5°F14.2°C 98% 3.0 mph N4.8 kmh N 3.0 mph4.8 kmh 29.16 in987.5 mb 0.00 in0.0 mm 0.00 in0.0 mm 0.02 in0.5 mm
06:54 PM 58.1°F14.5°C 57.5°F14.2°C 98% 3.0 mph N4.8 kmh N 3.0 mph4.8 kmh 29.14 in986.8 mb 0.00 in0.0 mm 0.00 in0.0 mm 0.02 in0.5 mm
06:46 PM 58.1°F14.5°C 57.5°F14.2°C 98% 3.0 mph N4.8 kmh N 3.0 mph4.8 kmh 29.11 in985.8 mb 0.00 in0.0 mm 0.00 in0.0 mm 0.02 in0.5 mm
06:38 PM 58.1°F14.5°C 57.5°F14.2°C 98% 3.0 mph N4.8 kmh N 3.0 mph4.8 kmh 29.12 in986.1 mb 0.00 in0.0 mm 0.00 in0.0 mm 0.02 in0.5 mm
06:30 PM 58.1°F14.5°C 57.5°F14.2°C 98% 3.0 mph N4.8 kmh N 3.0 mph4.8 kmh 29.11 in985.8 mb 0.00 in0.0 mm 0.00 in0.0 mm 0.02 in0.5 mm
06:22 PM 58.1°F14.5°C 57.5°F14.2°C 98% 3.0 mph N4.8 kmh N 3.0 mph4.8 kmh 29.11 in985.8 mb 0.00 in0.0 mm 0.00 in0.0 mm 0.02 in0.5 mm
06:14 PM 58.1°F14.5°C 57.5°F14.2°C 98% 3.0 mph N4.8 kmh N 3.0 mph4.8 kmh 29.13 in986.5 mb 0.00 in0.0 mm 0.00 in0.0 mm 0.02 in0.5 mm
06:06 PM 58.1°F14.5°C 57.5°F14.2°C 98% 3.0 mph N4.8 kmh N 3.0 mph4.8 kmh 29.14 in986.8 mb 0.00 in0.0 mm 0.00 in0.0 mm 0.02 in0.5 mm
05:58 PM 58.1°F14.5°C 57.5°F14.2°C 98% 3.0 mph N4.8 kmh N 3.0 mph4.8 kmh 29.15 in987.1 mb 0.00 in0.0 mm 0.00 in0.0 mm 0.02 in0.5 mm
05:48 PM 58.1°F14.5°C 57.5°F14.2°C 98% 3.0 mph N4.8 kmh N 3.0 mph4.8 kmh 29.15 in987.1 mb 0.00 in0.0 mm 0.00 in0.0 mm 0.02 in0.5 mm
05:40 PM 58.1°F14.5°C 57.5°F14.2°C 98% 3.0 mph N4.8 kmh N 3.0 mph4.8 kmh 29.16 in987.5 mb 0.00 in0.0 mm 0.00 in0.0 mm 0.02 in0.5 mm
05:32 PM 58.1°F14.5°C 57.5°F14.2°C 98% 3.0 mph N4.8 kmh N 3.0 mph4.8 kmh 29.16 in987.5 mb 0.00 in0.0 mm 0.00 in0.0 mm 0.02 in0.5 mm
05:24 PM 58.1°F14.5°C 57.5°F14.2°C 98% 3.0 mph N4.8 kmh N 3.0 mph4.8 kmh 29.18 in988.1 mb 0.00 in0.0 mm 0.00 in0.0 mm 0.02 in0.5 mm
05:16 PM 58.1°F14.5°C 57.5°F14.2°C 98% 3.0 mph N4.8 kmh N 3.0 mph4.8 kmh 29.18 in988.1 mb 0.00 in0.0 mm 0.00 in0.0 mm 0.02 in0.5 mm
05:08 PM 58.1°F14.5°C 57.5°F14.2°C 98% 3.0 mph N4.8 kmh N 3.0 mph4.8 kmh 29.19 in988.5 mb 0.00 in0.0 mm 0.00 in0.0 mm 0.02 in0.5 mm
05:00 PM 58.1°F14.5°C 57.5°F14.2°C 98% 3.0 mph N4.8 kmh N 3.0 mph4.8 kmh 29.19 in988.5 mb 0.00 in0.0 mm 0.00 in0.0 mm 0.02 in0.5 mm
04:52 PM 58.1°F14.5°C 57.5°F14.2°C 98% 3.0 mph N4.8 kmh N 3.0 mph4.8 kmh 29.19 in988.5 mb 0.00 in0.0 mm 0.00 in0.0 mm 0.02 in0.5 mm
04:44 PM 58.1°F14.5°C 57.5°F14.2°C 98% 3.0 mph N4.8 kmh N 3.0 mph4.8 kmh 29.17 in987.8 mb 0.00 in0.0 mm 0.00 in0.0 mm 0.02 in0.5 mm
04:36 PM 58.1°F14.5°C 57.5°F14.2°C 98% 3.0 mph N4.8 kmh N 3.0 mph4.8 kmh 29.18 in988.1 mb 0.00 in0.0 mm 0.00 in0.0 mm 0.02 in0.5 mm
04:28 PM 58.1°F14.5°C 57.5°F14.2°C 98% 3.0 mph N4.8 kmh N 3.0 mph4.8 kmh 29.18 in988.1 mb 0.00 in0.0 mm 0.00 in0.0 mm 0.02 in0.5 mm
04:20 PM 58.1°F14.5°C 57.5°F14.2°C 98% 3.0 mph N4.8 kmh N 7.0 mph11.3 kmh 29.19 in988.5 mb 0.00 in0.0 mm 0.00 in0.0 mm 0.02 in0.5 mm
04:12 PM 59.0°F15.0°C 58.4°F14.7°C 98% 7.0 mph NNE11.3 kmh NNE 7.0 mph11.3 kmh 29.19 in988.5 mb 0.00 in0.0 mm 0.00 in0.0 mm 0.02 in0.5 mm
04:04 PM 58.9°F14.9°C 58.3°F14.6°C 98% 1.0 mph SE1.6 kmh SE 7.0 mph11.3 kmh 29.19 in988.5 mb 0.01 in0.3 mm 0.00 in0.0 mm 0.02 in0.5 mm
03:56 PM 58.9°F14.9°C 58.3°F14.6°C 98% 4.0 mph SSW6.4 kmh SSW 13.0 mph20.9 kmh 29.20 in988.8 mb 0.02 in0.5 mm 0.00 in0.0 mm 0.02 in0.5 mm
03:48 PM 58.9°F14.9°C 58.3°F14.6°C 98% 3.0 mph NNW4.8 kmh NNW 13.0 mph20.9 kmh 29.20 in988.8 mb 0.02 in0.5 mm 0.00 in0.0 mm 0.02 in0.5 mm
03:40 PM 58.9°F14.9°C 58.3°F14.6°C 98% 1.0 mph NE1.6 kmh NE 9.0 mph14.5 kmh 29.21 in989.2 mb 0.02 in0.5 mm 0.00 in0.0 mm 0.02 in0.5 mm
03:32 PM 58.9°F14.9°C 58.3°F14.6°C 98% Calm Calm 1.0 mph1.6 kmh 29.24 in990.2 mb 0.02 in0.5 mm 0.00 in0.0 mm 0.02 in0.5 mm
03:24 PM 58.9°F14.9°C 58.1°F14.5°C 97% 1.0 mph ENE1.6 kmh ENE 4.0 mph6.4 kmh 29.25 in990.5 mb 0.02 in0.5 mm 0.00 in0.0 mm 0.02 in0.5 mm
03:16 PM 58.9°F14.9°C 58.1°F14.5°C 97% 3.0 mph NNE4.8 kmh NNE 6.0 mph9.7 kmh 29.26 in990.9 mb 0.02 in0.5 mm 0.00 in0.0 mm 0.02 in0.5 mm
03:08 PM 58.9°F14.9°C 58.1°F14.5°C 97% 3.0 mph ESE4.8 kmh ESE 4.0 mph6.4 kmh 29.29 in991.9 mb 0.02 in0.5 mm 0.08 in2.0 mm 0.02 in0.5 mm
03:00 PM 59.0°F15.0°C 57.9°F14.4°C 96% Calm Calm 5.0 mph8.0 kmh 29.29 in991.9 mb 0.01 in0.3 mm 0.01 in0.3 mm 0.01 in0.3 mm
02:50 PM 59.1°F15.1°C 58.0°F14.4°C 96% Calm Calm 7.0 mph11.3 kmh 29.30 in992.2 mb 0.00 in0.0 mm 0.00 in0.0 mm 0.00 in0.0 mm
02:40 PM 59.2°F15.1°C 58.1°F14.5°C 96% 4.0 mph SE6.4 kmh SE 7.0 mph11.3 kmh 29.31 in992.6 mb 0.00 in0.0 mm 0.00 in0.0 mm 0.00 in0.0 mm
02:30 PM 59.4°F15.2°C 58.0°F14.4°C 95% 1.0 mph E1.6 kmh E 6.0 mph9.7 kmh 29.32 in992.9 mb 0.00 in0.0 mm 0.00 in0.0 mm 0.00 in0.0 mm
02:22 PM 59.4°F15.2°C 58.0°F14.4°C 95% 2.0 mph SE3.2 kmh SE 5.0 mph8.0 kmh 29.33 in993.2 mb 0.00 in0.0 mm 0.00 in0.0 mm 0.00 in0.0 mm
02:14 PM 59.5°F15.3°C 58.1°F14.5°C 95% 3.0 mph E4.8 kmh E 5.0 mph8.0 kmh 29.33 in993.2 mb 0.00 in0.0 mm 0.00 in0.0 mm 0.00 in0.0 mm
02:06 PM 59.5°F15.3°C 58.1°F14.5°C 95% 2.0 mph SSE3.2 kmh SSE 9.0 mph14.5 kmh 29.34 in993.6 mb 0.00 in0.0 mm 0.00 in0.0 mm 0.00 in0.0 mm
01:58 PM 59.5°F15.3°C 58.1°F14.5°C 95% Calm Calm 1.0 mph1.6 kmh 29.34 in993.6 mb 0.00 in0.0 mm 0.00 in0.0 mm 0.00 in0.0 mm
01:50 PM 59.1°F15.1°C 57.7°F14.3°C 95% Calm Calm 6.0 mph9.7 kmh 29.35 in993.9 mb 0.00 in0.0 mm 0.00 in0.0 mm 0.00 in0.0 mm
01:42 PM 58.9°F14.9°C 57.8°F14.3°C 96% 2.0 mph SE3.2 kmh SE 2.0 mph3.2 kmh 29.35 in993.9 mb 0.00 in0.0 mm 0.00 in0.0 mm 0.00 in0.0 mm
01:34 PM 58.8°F14.9°C 57.7°F14.3°C 96% 1.0 mph E1.6 kmh E 11.0 mph17.7 kmh 29.37 in994.6 mb 0.00 in0.0 mm 0.00 in0.0 mm 0.00 in0.0 mm
01:26 PM 58.7°F14.8°C 57.6°F14.2°C 96% Calm Calm 7.0 mph11.3 kmh 29.40 in995.6 mb 0.00 in0.0 mm 0.00 in0.0 mm 0.00 in0.0 mm
01:18 PM 58.6°F14.8°C 57.5°F14.2°C 96% 8.0 mph E12.9 kmh E 9.0 mph14.5 kmh 29.41 in995.9 mb 0.00 in0.0 mm 0.00 in0.0 mm 0.00 in0.0 mm
01:10 PM 58.4°F14.7°C 57.3°F14.1°C 96% 2.0 mph SSE3.2 kmh SSE 10.0 mph16.1 kmh 29.42 in996.3 mb 0.00 in0.0 mm 0.00 in0.0 mm 0.00 in0.0 mm
01:02 PM 58.3°F14.6°C 57.2°F14.0°C 96% 1.0 mph SE1.6 kmh SE 1.0 mph1.6 kmh 29.43 in996.6 mb 0.00 in0.0 mm 0.00 in0.0 mm 0.00 in0.0 mm
12:54 PM 58.2°F14.6°C 57.1°F13.9°C 96% 2.0 mph SSE3.2 kmh SSE 6.0 mph9.7 kmh 29.44 in997.0 mb 0.00 in0.0 mm 0.00 in0.0 mm 0.00 in0.0 mm
12:46 PM 58.2°F14.6°C 57.1°F13.9°C 96% 2.0 mph ESE3.2 kmh ESE 9.0 mph14.5 kmh 29.43 in996.6 mb 0.00 in0.0 mm 0.00 in0.0 mm 0.00 in0.0 mm
12:38 PM 58.2°F14.6°C 57.1°F13.9°C 96% 1.0 mph ESE1.6 kmh ESE 5.0 mph8.0 kmh 29.43 in996.6 mb 0.00 in0.0 mm 0.00 in0.0 mm 0.00 in0.0 mm
12:30 PM 58.1°F14.5°C 57.0°F13.9°C 96% Calm Calm 3.0 mph4.8 kmh 29.47 in998.0 mb 0.00 in0.0 mm 0.00 in0.0 mm 0.00 in0.0 mm
12:22 PM 58.1°F14.5°C 57.0°F13.9°C 96% Calm Calm -- 29.48 in998.3 mb 0.00 in0.0 mm 0.00 in0.0 mm 0.00 in0.0 mm
12:14 PM 58.1°F14.5°C 57.0°F13.9°C 96% 1.0 mph SE1.6 kmh SE 2.0 mph3.2 kmh 29.48 in998.3 mb 0.00 in0.0 mm 0.00 in0.0 mm 0.00 in0.0 mm
12:06 PM 58.1°F14.5°C 57.0°F13.9°C 96% 1.0 mph SE1.6 kmh SE 2.0 mph3.2 kmh 29.48 in998.3 mb 0.00 in0.0 mm 0.00 in0.0 mm 0.00 in0.0 mm
11:58 AM 58.1°F14.5°C 57.3°F14.1°C 97% 5.0 mph ENE8.0 kmh ENE 5.0 mph8.0 kmh 29.47 in998.0 mb 0.00 in0.0 mm 0.00 in0.0 mm 0.00 in0.0 mm
11:50 AM 57.9°F14.4°C 56.8°F13.8°C 96% Calm Calm 5.0 mph8.0 kmh 29.48 in998.3 mb 0.00 in0.0 mm 0.00 in0.0 mm 0.00 in0.0 mm
11:42 AM 57.9°F14.4°C 56.8°F13.8°C 96% 3.0 mph E4.8 kmh E 4.0 mph6.4 kmh 29.48 in998.3 mb 0.00 in0.0 mm 0.00 in0.0 mm 0.00 in0.0 mm
11:34 AM 58.0°F14.4°C 56.9°F13.8°C 96% Calm Calm 2.0 mph3.2 kmh 29.50 in999.0 mb 0.00 in0.0 mm 0.00 in0.0 mm 0.00 in0.0 mm
11:26 AM 58.0°F14.4°C 56.9°F13.8°C 96% Calm Calm 2.0 mph3.2 kmh 29.51 in999.3 mb 0.00 in0.0 mm 0.00 in0.0 mm 0.00 in0.0 mm
11:18 AM 57.8°F14.3°C 56.7°F13.7°C 96% Calm Calm 1.0 mph1.6 kmh 29.52 in999.7 mb 0.00 in0.0 mm 0.00 in0.0 mm 0.00 in0.0 mm
11:10 AM 57.9°F14.4°C 56.8°F13.8°C 96% Calm Calm 7.0 mph11.3 kmh 29.53 in1000.0 mb 0.00 in0.0 mm 0.00 in0.0 mm 0.00 in0.0 mm
11:02 AM 58.0°F14.4°C 56.9°F13.8°C 96% Calm Calm -- 29.53 in1000.0 mb 0.00 in0.0 mm 0.00 in0.0 mm 0.00 in0.0 mm
10:54 AM 57.9°F14.4°C 56.8°F13.8°C 96% 1.0 mph SW1.6 kmh SW 2.0 mph3.2 kmh 29.53 in1000.0 mb 0.00 in0.0 mm 0.00 in0.0 mm 0.00 in0.0 mm
10:46 AM 57.8°F14.3°C 56.7°F13.7°C 96% 3.0 mph SSE4.8 kmh SSE 8.0 mph12.9 kmh 29.53 in1000.0 mb 0.00 in0.0 mm 0.00 in0.0 mm 0.00 in0.0 mm
10:38 AM 57.7°F14.3°C 56.6°F13.7°C 96% 1.0 mph SE1.6 kmh SE 4.0 mph6.4 kmh 29.53 in1000.0 mb 0.00 in0.0 mm 0.00 in0.0 mm 0.00 in0.0 mm
10:30 AM 57.6°F14.2°C 56.8°F13.8°C 97% Calm Calm 4.0 mph6.4 kmh 29.53 in1000.0 mb 0.00 in0.0 mm 0.00 in0.0 mm 0.00 in0.0 mm
10:22 AM 57.4°F14.1°C 56.6°F13.7°C 97% 1.0 mph E1.6 kmh E 1.0 mph1.6 kmh 29.51 in999.3 mb 0.00 in0.0 mm 0.00 in0.0 mm 0.00 in0.0 mm
10:14 AM 57.2°F14.0°C 56.4°F13.6°C 97% 2.0 mph SE3.2 kmh SE 8.0 mph12.9 kmh 29.50 in999.0 mb 0.00 in0.0 mm 0.00 in0.0 mm 0.00 in0.0 mm
10:06 AM 57.0°F13.9°C 56.2°F13.4°C 97% Calm Calm 5.0 mph8.0 kmh 29.53 in1000.0 mb 0.00 in0.0 mm 0.00 in0.0 mm 0.00 in0.0 mm
09:58 AM 57.0°F13.9°C 56.2°F13.4°C 97% Calm Calm 4.0 mph6.4 kmh 29.54 in1000.3 mb 0.00 in0.0 mm 0.00 in0.0 mm 0.00 in0.0 mm
09:50 AM 56.8°F13.8°C 56.0°F13.3°C 97% Calm Calm 5.0 mph8.0 kmh 29.53 in1000.0 mb 0.00 in0.0 mm 0.00 in0.0 mm 0.00 in0.0 mm
09:42 AM 56.8°F13.8°C 56.0°F13.3°C 97% 1.0 mph SE1.6 kmh SE 2.0 mph3.2 kmh 29.53 in1000.0 mb 0.00 in0.0 mm 0.00 in0.0 mm 0.00 in0.0 mm
09:34 AM 56.8°F13.8°C 56.0°F13.3°C 97% Calm Calm 4.0 mph6.4 kmh 29.53 in1000.0 mb 0.00 in0.0 mm 0.00 in0.0 mm 0.00 in0.0 mm
09:26 AM 56.8°F13.8°C 56.2°F13.4°C 98% 2.0 mph SSE3.2 kmh SSE 9.0 mph14.5 kmh 29.54 in1000.3 mb 0.00 in0.0 mm 0.00 in0.0 mm 0.00 in0.0 mm
09:18 AM 56.6°F13.7°C 56.0°F13.3°C 98% 1.0 mph E1.6 kmh E 1.0 mph1.6 kmh 29.57 in1001.4 mb 0.00 in0.0 mm 0.00 in0.0 mm 0.00 in0.0 mm
09:10 AM 55.8°F13.2°C 54.7°F12.6°C 96% Calm Calm -- 29.57 in1001.4 mb 0.00 in0.0 mm 0.00 in0.0 mm 0.00 in0.0 mm
09:02 AM 55.8°F13.2°C 54.7°F12.6°C 96% Calm Calm -- 29.57 in1001.4 mb 0.00 in0.0 mm 0.00 in0.0 mm 0.00 in0.0 mm
08:54 AM 55.8°F13.2°C 54.7°F12.6°C 96% Calm Calm -- 29.57 in1001.4 mb 0.00 in0.0 mm 0.00 in0.0 mm 0.00 in0.0 mm
08:46 AM 55.8°F13.2°C 54.7°F12.6°C 96% Calm Calm -- 29.57 in1001.4 mb 0.00 in0.0 mm 0.00 in0.0 mm 0.00 in0.0 mm
08:38 AM 55.8°F13.2°C 54.7°F12.6°C 96% Calm Calm -- 29.56 in1001.0 mb 0.00 in0.0 mm 0.00 in0.0 mm 0.00 in0.0 mm
08:30 AM 55.8°F13.2°C 54.7°F12.6°C 96% Calm Calm -- 29.57 in1001.4 mb 0.00 in0.0 mm 0.00 in0.0 mm 0.00 in0.0 mm
08:22 AM 55.8°F13.2°C 54.7°F12.6°C 96% Calm Calm -- 29.56 in1001.0 mb 0.00 in0.0 mm 0.00 in0.0 mm 0.00 in0.0 mm
08:14 AM 55.8°F13.2°C 54.7°F12.6°C 96% Calm Calm -- 29.55 in1000.7 mb 0.00 in0.0 mm 0.00 in0.0 mm 0.00 in0.0 mm
08:06 AM 55.8°F13.2°C 54.7°F12.6°C 96% Calm Calm -- 29.55 in1000.7 mb 0.00 in0.0 mm 0.00 in0.0 mm 0.00 in0.0 mm
07:58 AM 55.8°F13.2°C 54.7°F12.6°C 96% Calm Calm -- 29.55 in1000.7 mb 0.00 in0.0 mm 0.00 in0.0 mm 0.00 in0.0 mm
07:50 AM 55.8°F13.2°C 54.7°F12.6°C 96% Calm Calm -- 29.56 in1001.0 mb 0.00 in0.0 mm 0.00 in0.0 mm 0.00 in0.0 mm
07:42 AM 55.8°F13.2°C 54.7°F12.6°C 96% Calm Calm -- 29.56 in1001.0 mb 0.00 in0.0 mm 0.00 in0.0 mm 0.00 in0.0 mm
07:34 AM 55.8°F13.2°C 54.7°F12.6°C 96% Calm Calm -- 29.56 in1001.0 mb 0.00 in0.0 mm 0.00 in0.0 mm 0.00 in0.0 mm
07:26 AM 55.8°F13.2°C 54.7°F12.6°C 96% Calm Calm -- 29.57 in1001.4 mb 0.00 in0.0 mm 0.00 in0.0 mm 0.00 in0.0 mm
07:18 AM 55.8°F13.2°C 54.7°F12.6°C 96% Calm Calm -- 29.57 in1001.4 mb 0.00 in0.0 mm 0.00 in0.0 mm 0.00 in0.0 mm
07:10 AM 55.8°F13.2°C 54.7°F12.6°C 96% Calm Calm -- 29.57 in1001.4 mb 0.00 in0.0 mm 0.00 in0.0 mm 0.00 in0.0 mm
07:02 AM 55.8°F13.2°C 54.7°F12.6°C 96% Calm Calm -- 29.57 in1001.4 mb 0.00 in0.0 mm 0.00 in0.0 mm 0.00 in0.0 mm
06:54 AM 55.8°F13.2°C 54.7°F12.6°C 96% Calm Calm -- 29.57 in1001.4 mb 0.00 in0.0 mm 0.00 in0.0 mm 0.00 in0.0 mm
06:46 AM 55.8°F13.2°C 54.7°F12.6°C 96% Calm Calm -- 29.57 in1001.4 mb 0.00 in0.0 mm 0.00 in0.0 mm 0.00 in0.0 mm
06:38 AM 55.8°F13.2°C 54.7°F12.6°C 96% Calm Calm -- 29.57 in1001.4 mb 0.00 in0.0 mm 0.00 in0.0 mm 0.00 in0.0 mm
06:30 AM 55.8°F13.2°C 54.7°F12.6°C 96% Calm Calm -- 29.56 in1001.0 mb 0.00 in0.0 mm 0.00 in0.0 mm 0.00 in0.0 mm
06:22 AM 55.8°F13.2°C 54.7°F12.6°C 96% Calm Calm -- 29.56 in1001.0 mb 0.00 in0.0 mm 0.00 in0.0 mm 0.00 in0.0 mm
06:14 AM 55.8°F13.2°C 54.7°F12.6°C 96% Calm Calm -- 29.55 in1000.7 mb 0.00 in0.0 mm 0.00 in0.0 mm 0.00 in0.0 mm
06:06 AM 55.8°F13.2°C 54.7°F12.6°C 96% Calm Calm -- 29.56 in1001.0 mb 0.00 in0.0 mm 0.00 in0.0 mm 0.00 in0.0 mm
05:58 AM 55.8°F13.2°C 54.7°F12.6°C 96% Calm Calm -- 29.57 in1001.4 mb 0.00 in0.0 mm 0.00 in0.0 mm 0.00 in0.0 mm
05:50 AM 55.8°F13.2°C 54.7°F12.6°C 96% Calm Calm -- 29.56 in1001.0 mb 0.00 in0.0 mm 0.00 in0.0 mm 0.00 in0.0 mm
05:42 AM 55.8°F13.2°C 54.7°F12.6°C 96% Calm Calm -- 29.57 in1001.4 mb 0.00 in0.0 mm 0.00 in0.0 mm 0.00 in0.0 mm
05:34 AM 55.8°F13.2°C 54.7°F12.6°C 96% Calm Calm -- 29.56 in1001.0 mb 0.00 in0.0 mm 0.00 in0.0 mm 0.00 in0.0 mm
05:26 AM 55.8°F13.2°C 54.7°F12.6°C 96% Calm Calm -- 29.56 in1001.0 mb 0.00 in0.0 mm 0.00 in0.0 mm 0.00 in0.0 mm
05:18 AM 55.8°F13.2°C 54.7°F12.6°C 96% Calm Calm -- 29.55 in1000.7 mb 0.00 in0.0 mm 0.00 in0.0 mm 0.00 in0.0 mm
05:10 AM 55.8°F13.2°C 54.7°F12.6°C 96% Calm Calm -- 29.54 in1000.3 mb 0.00 in0.0 mm 0.00 in0.0 mm 0.00 in0.0 mm
05:02 AM 55.8°F13.2°C 54.7°F12.6°C 96% Calm Calm -- 29.54 in1000.3 mb 0.00 in0.0 mm 0.00 in0.0 mm 0.00 in0.0 mm
04:54 AM 55.8°F13.2°C 54.7°F12.6°C 96% Calm Calm -- 29.52 in999.7 mb 0.00 in0.0 mm 0.00 in0.0 mm 0.00 in0.0 mm
04:46 AM 55.8°F13.2°C 54.7°F12.6°C 96% Calm Calm -- 29.57 in1001.4 mb 0.00 in0.0 mm 0.00 in0.0 mm 0.00 in0.0 mm
04:38 AM 55.8°F13.2°C 54.7°F12.6°C 96% Calm Calm -- 29.58 in1001.7 mb 0.00 in0.0 mm 0.00 in0.0 mm 0.00 in0.0 mm
04:30 AM 55.8°F13.2°C 54.7°F12.6°C 96% Calm Calm -- 29.59 in1002.0 mb 0.00 in0.0 mm 0.00 in0.0 mm 0.00 in0.0 mm
04:22 AM 55.8°F13.2°C 54.7°F12.6°C 96% Calm Calm -- 29.59 in1002.0 mb 0.00 in0.0 mm 0.00 in0.0 mm 0.00 in0.0 mm
04:14 AM 55.8°F13.2°C 54.7°F12.6°C 96% Calm Calm -- 29.58 in1001.7 mb 0.00 in0.0 mm 0.00 in0.0 mm 0.00 in0.0 mm
04:06 AM 55.8°F13.2°C 54.7°F12.6°C 96% Calm Calm -- 29.58 in1001.7 mb 0.00 in0.0 mm 0.00 in0.0 mm 0.00 in0.0 mm
03:58 AM 55.8°F13.2°C 54.7°F12.6°C 96% Calm Calm -- 29.57 in1001.4 mb 0.00 in0.0 mm 0.00 in0.0 mm 0.00 in0.0 mm
03:50 AM 55.8°F13.2°C 54.7°F12.6°C 96% Calm Calm -- 29.58 in1001.7 mb 0.00 in0.0 mm 0.00 in0.0 mm 0.00 in0.0 mm
03:42 AM 55.8°F13.2°C 54.7°F12.6°C 96% Calm Calm -- 29.60 in1002.4 mb 0.00 in0.0 mm 0.00 in0.0 mm 0.00 in0.0 mm
03:34 AM 55.8°F13.2°C 54.7°F12.6°C 96% Calm Calm -- 29.63 in1003.4 mb 0.00 in0.0 mm 0.00 in0.0 mm 0.00 in0.0 mm
03:26 AM 55.8°F13.2°C 54.7°F12.6°C 96% Calm Calm -- 29.63 in1003.4 mb 0.00 in0.0 mm 0.00 in0.0 mm 0.00 in0.0 mm
03:18 AM 55.8°F13.2°C 54.7°F12.6°C 96% Calm Calm -- 29.62 in1003.0 mb 0.00 in0.0 mm 0.00 in0.0 mm 0.00 in0.0 mm
03:10 AM 55.8°F13.2°C 54.7°F12.6°C 96% Calm Calm -- 29.63 in1003.4 mb 0.00 in0.0 mm 0.00 in0.0 mm 0.00 in0.0 mm
03:02 AM 55.8°F13.2°C 54.7°F12.6°C 96% Calm Calm -- 29.63 in1003.4 mb 0.00 in0.0 mm 0.00 in0.0 mm 0.00 in0.0 mm
02:54 AM 55.8°F13.2°C 54.7°F12.6°C 96% Calm Calm -- 29.62 in1003.0 mb 0.00 in0.0 mm 0.00 in0.0 mm 0.00 in0.0 mm
02:46 AM 55.8°F13.2°C 54.7°F12.6°C 96% Calm Calm -- 29.61 in1002.7 mb 0.00 in0.0 mm 0.00 in0.0 mm 0.00 in0.0 mm
02:38 AM 55.8°F13.2°C 54.7°F12.6°C 96% Calm Calm -- 29.58 in1001.7 mb 0.00 in0.0 mm 0.00 in0.0 mm 0.00 in0.0 mm
02:30 AM 56.8°F13.8°C 56.0°F13.3°C 97% Calm Calm 1.0 mph1.6 kmh 29.58 in1001.7 mb 0.00 in0.0 mm 0.00 in0.0 mm 0.00 in0.0 mm
02:22 AM 56.8°F13.8°C 56.0°F13.3°C 97% 1.0 mph ESE1.6 kmh ESE 3.0 mph4.8 kmh 29.57 in1001.4 mb 0.00 in0.0 mm 0.00 in0.0 mm 0.00 in0.0 mm
02:14 AM 56.7°F13.7°C 55.9°F13.3°C 97% 2.0 mph SSE3.2 kmh SSE 9.0 mph14.5 kmh 29.56 in1001.0 mb 0.00 in0.0 mm 0.00 in0.0 mm 0.00 in0.0 mm
02:06 AM 56.6°F13.7°C 55.8°F13.2°C 97% Calm Calm 4.0 mph6.4 kmh 29.55 in1000.7 mb 0.00 in0.0 mm 0.00 in0.0 mm 0.00 in0.0 mm
01:58 AM 56.6°F13.7°C 56.0°F13.3°C 98% 2.0 mph ESE3.2 kmh ESE 2.0 mph3.2 kmh 29.55 in1000.7 mb 0.00 in0.0 mm 0.00 in0.0 mm 0.00 in0.0 mm
01:50 AM 56.6°F13.7°C 56.0°F13.3°C 98% 3.0 mph NE4.8 kmh NE 7.0 mph11.3 kmh 29.55 in1000.7 mb 0.00 in0.0 mm 0.00 in0.0 mm 0.00 in0.0 mm
01:42 AM 56.7°F13.7°C 56.1°F13.4°C 98% Calm Calm 4.0 mph6.4 kmh 29.56 in1001.0 mb 0.00 in0.0 mm 0.00 in0.0 mm 0.00 in0.0 mm
01:34 AM 56.7°F13.7°C 56.4°F13.6°C 99% 4.0 mph ESE6.4 kmh ESE 7.0 mph11.3 kmh 29.61 in1002.7 mb 0.00 in0.0 mm 0.00 in0.0 mm 0.00 in0.0 mm
01:26 AM 56.7°F13.7°C 56.4°F13.6°C 99% Calm Calm 5.0 mph8.0 kmh 29.64 in1003.7 mb 0.00 in0.0 mm 0.00 in0.0 mm 0.00 in0.0 mm
01:18 AM 56.6°F13.7°C 56.3°F13.5°C 99% Calm Calm 2.0 mph3.2 kmh 29.64 in1003.7 mb 0.00 in0.0 mm 0.00 in0.0 mm 0.00 in0.0 mm
01:10 AM 56.6°F13.7°C 56.3°F13.5°C 99% Calm Calm 2.0 mph3.2 kmh 29.64 in1003.7 mb 0.00 in0.0 mm 0.00 in0.0 mm 0.00 in0.0 mm
01:02 AM 56.5°F13.6°C 56.2°F13.4°C 99% 1.0 mph S1.6 kmh S 1.0 mph1.6 kmh 29.63 in1003.4 mb 0.00 in0.0 mm 0.00 in0.0 mm 0.00 in0.0 mm
12:54 AM 56.5°F13.6°C 56.2°F13.4°C 99% Calm Calm 1.0 mph1.6 kmh 29.64 in1003.7 mb 0.00 in0.0 mm 0.00 in0.0 mm 0.00 in0.0 mm
12:46 AM 56.5°F13.6°C 56.2°F13.4°C 99% 3.0 mph SE4.8 kmh SE 3.0 mph4.8 kmh 29.64 in1003.7 mb 0.00 in0.0 mm 0.00 in0.0 mm 0.00 in0.0 mm
12:38 AM 56.4°F13.6°C 56.1°F13.4°C 99% Calm Calm 2.0 mph3.2 kmh 29.64 in1003.7 mb 0.00 in0.0 mm 0.00 in0.0 mm 0.00 in0.0 mm
12:30 AM 56.3°F13.5°C 55.8°F13.2°C 98% 1.0 mph S1.6 kmh S 2.0 mph3.2 kmh 29.65 in1004.1 mb 0.00 in0.0 mm 0.00 in0.0 mm 0.00 in0.0 mm
12:22 AM 56.1°F13.4°C 55.6°F13.1°C 98% Calm Calm 1.0 mph1.6 kmh 29.64 in1003.7 mb 0.00 in0.0 mm 0.00 in0.0 mm 0.00 in0.0 mm
12:14 AM 56.3°F13.5°C 55.8°F13.2°C 98% Calm Calm 2.0 mph3.2 kmh 29.60 in1002.4 mb 0.00 in0.0 mm 0.00 in0.0 mm 0.00 in0.0 mm
12:06 AM 56.3°F13.5°C 55.8°F13.2°C 98% Calm Calm 2.0 mph3.2 kmh 29.63 in1003.4 mb 0.00 in0.0 mm 0.00 in0.0 mm 0.00 in0.0 mm